Time;durP1;ratioP1;P1;durP2;ratioP2;P2;SDS_P1;SDS_P2;PMS_P1;PMS_P2;Temp;Humidity;BMP_temperature;BMP_pressure;BME280_temperature;BME280_humidity;BME280_pressure;Samples;Min_cycle;Max_cycle;Signal;HPM_P1;HPM_P2
2023/09/11 00:01:15;;;;;;;11.03;10.00;;;27.60;89.70;;;;;;5062056;28;20431;-70
2023/09/11 00:03:43;;;;;;;10.67;9.80;;;27.50;89.60;;;;;;5062003;28;20479;-71
2023/09/11 00:06:10;;;;;;;11.43;10.17;;;27.50;89.60;;;;;;5061505;28;20433;-71
2023/09/11 00:08:38;;;;;;;10.30;9.40;;;27.50;89.60;;;;;;5061789;28;20905;-71
2023/09/11 00:11:04;;;;;;;10.20;9.30;;;27.50;89.60;;;;;;5044848;28;20421;-70
2023/09/11 00:13:33;;;;;;;10.00;9.10;;;27.50;89.60;;;;;;5061418;28;20508;-70
2023/09/11 00:16:01;;;;;;;10.53;9.53;;;27.50;89.60;;;;;;5061853;28;21186;-70
2023/09/11 00:18:32;;;;;;;10.37;9.37;;;27.50;89.60;;;;;;5061702;28;20191;-70
2023/09/11 00:20:58;;;;;;;9.90;9.00;;;27.50;90.20;;;;;;5062837;28;20409;-71
2023/09/11 00:23:24;;;;;;;10.67;9.67;;;27.40;89.60;;;;;;5061647;28;20500;-71
2023/09/11 00:25:52;;;;;;;14.03;9.80;;;27.40;89.60;;;;;;5061002;28;20421;-70
2023/09/11 00:28:18;;;;;;;11.50;9.80;;;27.40;89.60;;;;;;5044526;28;20464;-70
2023/09/11 00:30:46;;;;;;;11.03;9.90;;;27.40;89.60;;;;;;5059763;28;20421;-70
2023/09/11 00:33:12;;;;;;;10.53;9.20;;;27.40;89.70;;;;;;5060133;28;20432;-70
2023/09/11 00:35:42;;;;;;;10.43;9.50;;;27.30;89.60;;;;;;5060898;28;20407;-70
2023/09/11 00:38:08;;;;;;;9.80;8.80;;;27.40;89.70;;;;;;5061467;28;20445;-70
2023/09/11 00:40:37;;;;;;;13.30;10.33;;;27.40;89.60;;;;;;5028006;28;20469;-70
2023/09/11 00:43:06;;;;;;;10.27;9.10;;;27.30;89.80;;;;;;5060842;28;20429;-70
2023/09/11 00:45:32;;;;;;;12.67;9.10;;;27.30;89.70;;;;;;5044024;28;20175;-70
2023/09/11 00:47:59;;;;;;;9.70;8.77;;;27.30;89.70;;;;;;5027548;28;20457;-70
2023/09/11 00:50:30;;;;;;;11.03;9.90;;;27.30;89.70;;;;;;5027431;28;20460;-71
2023/09/11 00:52:59;;;;;;;12.47;9.87;;;27.30;89.70;;;;;;5060660;28;20445;-70
2023/09/11 00:55:26;;;;;;;10.60;9.60;;;27.30;89.70;;;;;;5060446;28;20433;-70
2023/09/11 00:58:00;;;;;;;10.60;9.53;;;27.30;89.80;;;;;;5043633;28;20958;-70
2023/09/11 01:00:26;;;;;;;13.97;9.50;;;27.30;89.80;;;;;;5027570;28;20421;-70
2023/09/11 01:02:57;;;;;;;10.17;9.27;;;27.20;89.70;;;;;;5060786;28;20962;-70
2023/09/11 01:05:27;;;;;;;9.73;8.83;;;27.20;89.70;;;;;;5061221;28;20425;-70
2023/09/11 01:07:58;;;;;;;10.27;9.23;;;27.20;89.70;;;;;;5061260;28;20895;-71
2023/09/11 01:10:27;;;;;;;9.53;8.50;;;27.20;89.80;;;;;;4993518;23;20505;-75
2023/09/11 01:12:53;;;;;;;10.00;9.00;;;27.20;89.80;;;;;;4966608;28;20468;-75
2023/09/11 01:15:19;;;;;;;10.77;9.80;;;27.20;89.80;;;;;;4983896;28;21120;-75
2023/09/11 01:18:04;;;;;;;10.80;9.40;;;27.10;89.70;;;;;;4983661;28;21034;-75
2023/09/11 01:20:50;;;;;;;12.90;9.67;;;27.10;89.80;;;;;;4963918;28;20424;-76
2023/09/11 01:23:59;;;;;;;9.70;8.47;;;27.10;89.80;;;;;;4949690;28;21035;-75
2023/09/11 01:26:46;;;;;;;9.67;8.60;;;27.10;89.80;;;;;;4947049;28;21209;-75
2023/09/11 01:29:25;;;;;;;9.90;8.90;;;27.10;89.90;;;;;;4978026;28;21002;-75
2023/09/11 01:31:55;;;;;;;9.40;8.50;;;27.10;89.90;;;;;;4963777;28;20433;-76
2023/09/11 01:34:26;;;;;;;9.60;8.63;;;27.10;90.00;;;;;;4962041;28;21012;-75
2023/09/11 01:36:56;;;;;;;9.70;8.70;;;27.00;89.90;;;;;;4978262;28;20452;-75
2023/09/11 01:39:24;;;;;;;10.43;8.23;;;27.00;89.90;;;;;;4966679;28;21144;-75
2023/09/11 01:41:59;;;;;;;10.43;9.33;;;27.00;89.80;;;;;;4967344;28;21006;-75
2023/09/11 01:44:36;;;;;;;10.67;8.63;;;27.00;89.90;;;;;;4982041;28;20433;-76
2023/09/11 01:47:07;;;;;;;9.57;8.77;;;27.00;89.80;;;;;;4966300;28;20418;-75
2023/09/11 01:49:36;;;;;;;10.87;9.77;;;27.00;89.90;;;;;;4981848;28;20437;-75
2023/09/11 01:52:03;;;;;;;10.13;9.17;;;27.00;89.90;;;;;;4950181;28;20445;-75
2023/09/11 01:54:33;;;;;;;10.33;9.40;;;27.00;89.90;;;;;;4949239;28;20465;-76
2023/09/11 01:57:02;;;;;;;10.37;9.37;;;27.00;89.90;;;;;;4949625;28;20465;-75
2023/09/11 01:59:28;;;;;;;9.60;8.70;;;26.90;89.90;;;;;;4950511;28;21104;-76
2023/09/11 02:01:56;;;;;;;9.60;8.70;;;26.90;89.80;;;;;;4982663;28;21112;-76
2023/09/11 02:04:23;;;;;;;10.17;9.27;;;26.90;89.80;;;;;;4982236;28;20417;-75
2023/09/11 02:06:49;;;;;;;10.37;9.27;;;26.90;89.90;;;;;;4934120;28;21350;-75
2023/09/11 02:09:18;;;;;;;9.40;7.90;;;26.90;89.90;;;;;;4966961;28;20552;-76
2023/09/11 02:11:49;;;;;;;10.00;8.97;;;26.90;89.90;;;;;;4949992;28;20422;-76
2023/09/11 02:14:15;;;;;;;10.40;8.43;;;26.90;89.90;;;;;;4965489;28;20410;-76
2023/09/11 02:16:48;;;;;;;9.50;8.70;;;26.90;89.90;;;;;;4934931;28;20564;-75
2023/09/11 02:19:16;;;;;;;11.00;8.80;;;26.80;90.30;;;;;;4949994;28;20442;-75
2023/09/11 02:21:46;;;;;;;10.80;8.70;;;26.80;89.80;;;;;;4965895;28;20468;-75
2023/09/11 02:24:15;;;;;;;9.93;9.03;;;26.80;89.90;;;;;;4966070;28;21343;-75
2023/09/11 02:26:43;;;;;;;9.47;8.53;;;26.80;89.90;;;;;;4949932;28;20489;-75
2023/09/11 02:29:09;;;;;;;10.00;9.13;;;26.80;89.90;;;;;;4949674;28;20454;-75
2023/09/11 02:31:35;;;;;;;12.80;8.60;;;26.80;90.00;;;;;;4967035;28;20440;-75
2023/09/11 02:34:03;;;;;;;10.20;9.20;;;26.80;90.00;;;;;;4981619;28;20472;-75
2023/09/11 02:36:31;;;;;;;15.13;9.40;;;26.80;89.90;;;;;;4949242;28;20470;-75
2023/09/11 02:38:58;;;;;;;9.43;8.63;;;26.70;89.90;;;;;;4965316;28;20543;-75
2023/09/11 02:41:23;;;;;;;9.70;8.40;;;26.70;89.80;;;;;;4981318;28;21156;-75
2023/09/11 02:43:50;;;;;;;9.37;8.57;;;26.70;89.90;;;;;;4965462;28;20419;-75
2023/09/11 02:46:16;;;;;;;8.80;8.00;;;26.70;89.90;;;;;;4966888;28;20775;-75
2023/09/11 02:48:47;;;;;;;9.63;8.73;;;26.70;89.80;;;;;;4949307;28;20473;-75
2023/09/11 02:51:17;;;;;;;10.20;8.40;;;26.70;89.90;;;;;;4949247;28;20441;-75
2023/09/11 02:53:45;;;;;;;10.63;9.43;;;26.70;89.90;;;;;;4949303;28;20450;-76
2023/09/11 02:56:13;;;;;;;9.57;8.77;;;26.70;90.00;;;;;;4949411;28;20539;-76
2023/09/11 02:58:39;;;;;;;8.80;8.00;;;26.70;89.90;;;;;;4933092;28;21249;-75
2023/09/11 03:01:05;;;;;;;10.33;9.33;;;26.60;89.90;;;;;;4964635;28;20418;-76
2023/09/11 03:03:32;;;;;;;9.50;8.23;;;26.60;89.90;;;;;;4948978;28;20994;-75
2023/09/11 03:06:01;;;;;;;9.47;8.47;;;26.60;89.90;;;;;;4965432;28;20477;-75
2023/09/11 03:08:28;;;;;;;9.70;8.63;;;26.60;89.90;;;;;;4965458;28;20500;-75
2023/09/11 03:11:10;;;;;;;9.13;8.33;;;26.60;89.90;;;;;;4980750;28;20465;-75
2023/09/11 03:13:45;;;;;;;10.13;8.90;;;26.60;89.90;;;;;;4964914;28;20410;-76
2023/09/11 03:16:16;;;;;;;9.10;8.20;;;26.50;89.90;;;;;;4964640;28;20454;-76
2023/09/11 03:18:50;;;;;;;11.20;8.90;;;26.50;89.90;;;;;;4948993;28;21020;-75
2023/09/11 03:21:23;;;;;;;10.13;8.40;;;26.50;89.90;;;;;;4948930;28;20442;-75
2023/09/11 03:23:54;;;;;;;9.70;7.87;;;26.50;89.90;;;;;;4949164;28;20456;-75
2023/09/11 03:26:20;;;;;;;8.93;8.13;;;26.50;89.90;;;;;;4964587;28;20402;-75
2023/09/11 03:28:50;;;;;;;11.83;8.70;;;26.50;89.90;;;;;;4948895;28;20508;-74
2023/09/11 03:31:18;;;;;;;10.40;8.10;;;26.40;89.70;;;;;;4948776;28;21325;-75
2023/09/11 03:33:45;;;;;;;10.27;8.57;;;26.40;89.80;;;;;;4964754;28;20794;-75
2023/09/11 03:36:18;;;;;;;9.73;8.83;;;26.40;89.80;;;;;;4948967;28;20974;-75
2023/09/11 03:38:44;;;;;;;8.77;7.97;;;26.40;89.80;;;;;;4964251;28;20456;-75
2023/09/11 03:41:13;;;;;;;9.27;8.37;;;26.40;89.80;;;;;;4964802;28;20413;-75
2023/09/11 03:43:39;;;;;;;14.43;9.67;;;26.40;89.90;;;;;;4948646;28;20453;-75
2023/09/11 03:46:06;;;;;;;9.40;8.47;;;26.40;89.90;;;;;;4964522;28;20477;-75
2023/09/11 03:48:33;;;;;;;10.00;9.00;;;26.40;89.90;;;;;;4964259;28;20508;-75
2023/09/11 03:50:59;;;;;;;10.03;8.67;;;26.40;89.90;;;;;;4948079;28;20537;-75
2023/09/11 03:53:25;;;;;;;9.10;7.70;;;26.40;89.90;;;;;;4948057;28;20484;-75
2023/09/11 03:55:51;;;;;;;10.20;9.20;;;26.30;89.90;;;;;;4963845;28;20465;-75
2023/09/11 03:58:18;;;;;;;11.00;7.70;;;26.30;89.90;;;;;;4947662;28;20472;-75
2023/09/11 04:00:44;;;;;;;8.70;7.80;;;26.30;89.90;;;;;;4963207;28;20501;-75
2023/09/11 04:03:13;;;;;;;9.57;8.37;;;26.30;89.90;;;;;;4964036;28;20214;-75
2023/09/11 04:05:42;;;;;;;10.40;8.90;;;26.30;89.90;;;;;;4964932;28;20506;-75
2023/09/11 04:08:08;;;;;;;11.93;8.43;;;26.20;89.90;;;;;;4964298;28;20418;-75
2023/09/11 04:10:34;;;;;;;9.80;8.37;;;26.20;89.90;;;;;;4963482;28;20473;-75
2023/09/11 04:13:03;;;;;;;10.07;9.20;;;26.20;89.90;;;;;;4932588;28;20418;-75
2023/09/11 04:15:29;;;;;;;10.33;8.40;;;26.20;89.90;;;;;;4964117;28;20441;-75
2023/09/11 04:17:56;;;;;;;10.70;8.77;;;26.20;89.90;;;;;;4947842;28;20591;-75
2023/09/11 04:20:24;;;;;;;9.97;8.40;;;26.20;89.90;;;;;;4964153;28;20450;-75
2023/09/11 04:22:52;;;;;;;11.80;8.20;;;26.20;89.90;;;;;;4948758;28;20402;-75
2023/09/11 04:25:21;;;;;;;9.80;8.37;;;26.20;89.90;;;;;;4964696;28;20446;-75
2023/09/11 04:27:53;;;;;;;9.63;8.73;;;26.10;89.90;;;;;;4948739;28;20458;-75
2023/09/11 04:30:23;;;;;;;9.77;7.87;;;26.10;89.90;;;;;;4965053;28;20508;-75
2023/09/11 04:32:56;;;;;;;10.77;9.07;;;26.10;89.90;;;;;;4965666;28;20458;-75
2023/09/11 04:35:23;;;;;;;8.60;7.80;;;26.10;90.00;;;;;;4966448;28;20445;-75
2023/09/11 04:37:52;;;;;;;9.63;8.57;;;26.10;90.30;;;;;;4982801;28;21016;-79
2023/09/11 04:40:18;;;;;;;9.87;8.53;;;26.10;90.00;;;;;;4952083;28;20461;-78
2023/09/11 04:42:45;;;;;;;9.93;8.93;;;26.10;90.00;;;;;;4969108;28;21265;-78
2023/09/11 04:45:17;;;;;;;10.20;8.07;;;26.10;90.00;;;;;;4969343;28;20434;-78
2023/09/11 04:47:46;;;;;;;8.93;8.13;;;26.10;90.00;;;;;;4952659;28;20465;-79
2023/09/11 04:50:12;;;;;;;9.40;8.60;;;26.00;90.00;;;;;;4967148;28;20445;-78
2023/09/11 04:52:39;;;;;;;10.23;9.13;;;26.10;90.00;;;;;;4950509;28;20422;-74
2023/09/11 04:55:05;;;;;;;11.17;8.10;;;26.00;90.00;;;;;;4963711;28;20302;-76
2023/09/11 04:57:33;;;;;;;9.40;8.50;;;26.00;90.00;;;;;;4946779;28;20465;-76
2023/09/11 05:00:00;;;;;;;11.20;7.83;;;26.00;90.00;;;;;;4961865;28;20445;-76
2023/09/11 05:02:26;;;;;;;9.50;8.60;;;26.00;90.10;;;;;;4961416;28;20414;-75
2023/09/11 05:04:54;;;;;;;12.33;8.00;;;26.00;90.10;;;;;;4944886;28;20437;-76
2023/09/11 05:07:27;;;;;;;10.67;8.10;;;26.00;90.10;;;;;;4963815;28;20479;-76
2023/09/11 05:09:56;;;;;;;13.77;9.50;;;26.00;90.10;;;;;;4944871;28;20593;-76
2023/09/11 05:12:29;;;;;;;11.43;8.33;;;25.90;90.10;;;;;;4962601;28;20436;-76
2023/09/11 05:14:57;;;;;;;10.40;8.10;;;25.90;90.10;;;;;;4927600;29;20411;-75
2023/09/11 05:17:24;;;;;;;8.53;7.73;;;25.90;90.10;;;;;;4944348;29;20506;-76
2023/09/11 05:19:53;;;;;;;9.23;8.17;;;25.90;90.10;;;;;;4958452;28;20466;-76
2023/09/11 05:22:19;;;;;;;8.70;7.77;;;25.90;90.10;;;;;;4911157;29;20530;-77
2023/09/11 05:24:45;;;;;;;8.77;7.90;;;25.90;90.10;;;;;;4928237;28;20464;-77
2023/09/11 05:27:16;;;;;;;10.20;7.90;;;25.90;90.10;;;;;;4941928;29;20435;-77
2023/09/11 05:29:44;;;;;;;8.17;7.37;;;25.90;90.10;;;;;;4926166;29;20447;-77
2023/09/11 05:32:10;;;;;;;8.63;7.73;;;25.90;90.20;;;;;;4943471;28;20569;-76
2023/09/11 05:34:36;;;;;;;8.60;7.53;;;25.80;90.10;;;;;;4941320;29;20451;-77
2023/09/11 05:37:06;;;;;;;10.47;9.27;;;25.80;90.10;;;;;;4941670;29;20451;-76
2023/09/11 05:39:32;;;;;;;10.33;8.97;;;25.80;90.10;;;;;;4941882;28;20450;-75
2023/09/11 05:41:58;;;;;;;10.90;8.20;;;25.80;90.10;;;;;;4944574;28;20411;-75
2023/09/11 05:44:24;;;;;;;9.00;7.97;;;25.80;90.10;;;;;;4943306;29;20932;-76
2023/09/11 05:46:50;;;;;;;9.30;7.70;;;25.80;90.10;;;;;;4943142;28;21066;-74
2023/09/11 05:49:16;;;;;;;8.60;7.80;;;25.80;90.10;;;;;;4961219;28;20485;-74
2023/09/11 05:51:43;;;;;;;8.87;8.10;;;25.80;90.20;;;;;;4961415;28;20465;-73
2023/09/11 05:54:11;;;;;;;8.80;8.00;;;25.70;90.10;;;;;;4961487;28;20418;-74
2023/09/11 05:56:37;;;;;;;9.70;8.00;;;25.70;90.10;;;;;;4962557;28;20450;-74
2023/09/11 05:59:03;;;;;;;9.37;8.57;;;25.70;90.10;;;;;;4945283;28;20492;-74
2023/09/11 06:01:34;;;;;;;7.87;7.13;;;25.70;90.20;;;;;;4961550;28;20493;-75
2023/09/11 06:04:03;;;;;;;9.73;8.03;;;25.70;90.20;;;;;;4961704;28;21198;-76
2023/09/11 06:06:30;;;;;;;8.80;7.90;;;25.70;90.20;;;;;;4978275;28;20178;-75
2023/09/11 06:08:59;;;;;;;8.50;7.70;;;25.70;90.20;;;;;;4945127;28;20457;-74
2023/09/11 06:11:28;;;;;;;9.00;8.10;;;25.70;90.20;;;;;;4961784;28;20429;-74
2023/09/11 06:13:54;;;;;;;8.60;7.80;;;25.70;90.20;;;;;;4929395;28;20552;-73
2023/09/11 06:16:20;;;;;;;8.57;7.57;;;25.70;90.20;;;;;;4976522;28;20553;-74
2023/09/11 06:18:50;;;;;;;8.60;7.80;;;25.60;90.20;;;;;;4961580;28;20210;-74
2023/09/11 06:21:17;;;;;;;8.20;7.43;;;25.60;90.20;;;;;;4961567;28;20418;-74
2023/09/11 06:23:48;;;;;;;10.73;8.20;;;25.60;90.20;;;;;;4961310;28;20434;-76
2023/09/11 06:26:14;;;;;;;9.47;8.40;;;25.60;90.20;;;;;;4965184;28;20442;-78
2023/09/11 06:28:45;;;;;;;8.80;7.90;;;25.60;90.20;;;;;;4934552;28;21347;-73
2023/09/11 06:31:12;;;;;;;9.93;8.20;;;25.60;90.20;;;;;;4948136;28;20538;-74
2023/09/11 06:33:40;;;;;;;9.23;7.83;;;25.60;90.20;;;;;;4981596;28;20422;-74
2023/09/11 06:36:11;;;;;;;8.00;7.30;;;25.60;90.20;;;;;;4948497;28;20465;-74
2023/09/11 06:38:37;;;;;;;7.80;7.07;;;25.60;90.20;;;;;;4963712;28;20446;-74
2023/09/11 06:41:03;;;;;;;11.23;8.20;;;25.60;90.20;;;;;;4960635;28;20426;-74
2023/09/11 06:43:29;;;;;;;9.73;8.20;;;25.60;90.20;;;;;;4961391;28;20490;-74
2023/09/11 06:45:56;;;;;;;9.57;8.67;;;25.60;90.20;;;;;;4946768;28;20399;-74
2023/09/11 06:48:27;;;;;;;7.67;6.97;;;25.60;90.20;;;;;;4960813;28;20447;-76
2023/09/11 06:50:53;;;;;;;11.87;7.53;;;25.60;90.20;;;;;;4945060;28;20462;-75
2023/09/11 06:53:21;;;;;;;8.90;7.90;;;25.60;90.20;;;;;;4950793;28;20429;-75
2023/09/11 06:55:51;;;;;;;9.43;7.73;;;25.60;90.20;;;;;;4948004;28;20448;-74
2023/09/11 06:58:19;;;;;;;12.90;8.43;;;25.60;90.20;;;;;;4963765;28;20442;-74
2023/09/11 07:00:47;;;;;;;8.43;7.57;;;25.60;90.20;;;;;;4960435;28;20423;-75
2023/09/11 07:03:13;;;;;;;10.27;7.53;;;25.60;90.20;;;;;;4944852;29;20438;-75
2023/09/11 07:05:40;;;;;;;8.63;7.93;;;25.60;90.20;;;;;;4945962;28;20451;-75
2023/09/11 07:08:06;;;;;;;12.83;7.70;;;25.60;90.20;;;;;;4944816;29;20451;-75
2023/09/11 07:10:34;;;;;;;9.83;8.00;;;25.60;90.10;;;;;;4953273;28;20472;-75
2023/09/11 07:13:04;;;;;;;10.23;8.20;;;25.60;90.10;;;;;;4963850;28;20199;-75
2023/09/11 07:15:30;;;;;;;9.50;8.00;;;25.60;90.10;;;;;;4946918;28;20430;-75
2023/09/11 07:18:01;;;;;;;9.07;8.27;;;25.60;90.10;;;;;;4963277;28;20454;-75
2023/09/11 07:20:30;;;;;;;11.10;7.60;;;25.60;90.10;;;;;;4947928;28;20457;-75
2023/09/11 07:22:58;;;;;;;9.83;8.93;;;25.60;90.10;;;;;;4964745;28;21147;-73
2023/09/11 07:25:24;;;;;;;8.60;7.77;;;25.50;90.00;;;;;;4946905;28;20409;-75
2023/09/11 07:27:54;;;;;;;8.03;7.23;;;25.60;90.00;;;;;;4964869;28;20504;-74
2023/09/11 07:30:20;;;;;;;9.37;7.77;;;25.60;90.10;;;;;;4964924;28;20446;-75
2023/09/11 07:32:49;;;;;;;9.20;8.30;;;25.60;90.10;;;;;;4964906;28;20517;-75
2023/09/11 07:35:17;;;;;;;7.70;6.90;;;25.60;90.10;;;;;;4931790;28;20417;-75
2023/09/11 07:37:44;;;;;;;9.37;7.37;;;25.60;90.00;;;;;;4947883;28;20479;-75
2023/09/11 07:40:10;;;;;;;12.90;7.73;;;25.50;90.00;;;;;;4963609;28;20792;-75
2023/09/11 07:42:39;;;;;;;11.53;8.77;;;25.60;90.00;;;;;;4963569;28;20599;-75
2023/09/11 07:45:07;;;;;;;11.50;7.30;;;25.60;90.00;;;;;;4963691;28;20426;-75
2023/09/11 07:47:39;;;;;;;9.00;8.10;;;25.60;90.00;;;;;;4962852;28;21160;-75
2023/09/11 07:50:05;;;;;;;8.80;7.93;;;25.60;90.00;;;;;;4963268;28;20537;-75
2023/09/11 07:52:35;;;;;;;9.77;8.77;;;25.60;90.00;;;;;;4962333;28;20410;-74
2023/09/11 07:55:01;;;;;;;9.80;7.77;;;25.50;89.80;;;;;;4962557;28;20422;-74
2023/09/11 07:57:30;;;;;;;11.00;8.27;;;25.50;89.80;;;;;;4962547;28;20501;-75
2023/09/11 08:00:04;;;;;;;9.10;7.47;;;25.60;89.80;;;;;;4947599;28;20485;-74
2023/09/11 08:02:33;;;;;;;9.80;8.07;;;25.50;89.70;;;;;;4965259;28;21036;-75
2023/09/11 08:05:07;;;;;;;8.87;8.00;;;25.60;89.80;;;;;;4964615;28;20927;-75
2023/09/11 08:07:36;;;;;;;8.00;7.30;;;25.60;89.70;;;;;;4964066;28;20922;-75
2023/09/11 08:10:04;;;;;;;7.80;7.10;;;25.60;89.60;;;;;;4963484;28;20466;-75
2023/09/11 08:12:33;;;;;;;7.93;7.13;;;25.50;89.50;;;;;;4946280;28;20446;-75
2023/09/11 08:14:59;;;;;;;8.97;8.03;;;25.60;89.60;;;;;;4958792;28;20430;-75
2023/09/11 08:17:27;;;;;;;10.17;8.30;;;25.60;89.60;;;;;;4944312;28;20838;-75
2023/09/11 08:19:57;;;;;;;8.07;7.27;;;25.60;89.50;;;;;;4926553;29;20451;-75
2023/09/11 08:22:23;;;;;;;11.43;7.67;;;25.60;89.50;;;;;;4942707;29;20480;-74
2023/09/11 08:24:49;;;;;;;8.93;7.63;;;25.60;89.60;;;;;;4943307;29;20463;-75
2023/09/11 08:27:17;;;;;;;8.60;7.80;;;25.60;89.60;;;;;;4911264;29;20969;-73
2023/09/11 08:29:43;;;;;;;10.50;7.13;;;25.60;89.50;;;;;;4942652;29;21054;-73
2023/09/11 08:32:09;;;;;;;10.63;8.10;;;25.60;90.10;;;;;;4942385;29;20901;-73
2023/09/11 08:34:38;;;;;;;9.03;7.73;;;25.60;89.40;;;;;;4942296;29;20470;-73
2023/09/11 08:37:06;;;;;;;11.37;8.40;;;25.60;89.40;;;;;;4928568;28;20537;-73
2023/09/11 08:39:32;;;;;;;9.50;8.50;;;25.60;89.40;;;;;;4961500;28;21012;-72
2023/09/11 08:42:00;;;;;;;8.70;7.90;;;25.60;89.40;;;;;;4960849;28;21041;-73
2023/09/11 08:44:28;;;;;;;9.73;8.20;;;25.60;89.30;;;;;;4958294;28;20475;-73
2023/09/11 08:46:58;;;;;;;10.40;7.90;;;25.60;89.30;;;;;;4941900;28;20478;-73
2023/09/11 08:49:28;;;;;;;11.93;7.73;;;25.60;89.40;;;;;;4943963;28;20936;-73
2023/09/11 08:51:56;;;;;;;8.40;7.60;;;25.60;89.40;;;;;;4926214;29;20442;-72
2023/09/11 08:54:29;;;;;;;10.13;8.07;;;25.70;89.60;;;;;;4942483;28;20926;-73
2023/09/11 08:56:58;;;;;;;8.97;8.13;;;25.70;89.70;;;;;;4942171;29;20891;-73
2023/09/11 08:59:32;;;;;;;9.60;7.87;;;25.70;89.80;;;;;;4942138;28;20979;-72
2023/09/11 09:02:05;;;;;;;9.57;7.93;;;25.70;89.70;;;;;;4958708;28;20983;-73
2023/09/11 09:04:34;;;;;;;9.67;7.97;;;25.70;89.80;;;;;;4958559;28;20886;-73
2023/09/11 09:07:00;;;;;;;10.03;8.10;;;25.70;89.80;;;;;;4943638;28;20545;-73
2023/09/11 09:09:27;;;;;;;11.30;8.60;;;25.70;89.90;;;;;;4942016;29;20514;-72
2023/09/11 09:11:53;;;;;;;9.00;8.10;;;25.80;90.00;;;;;;4934244;28;20446;-71
2023/09/11 09:14:23;;;;;;;8.77;7.90;;;25.80;90.00;;;;;;4961252;28;20434;-72
2023/09/11 09:16:48;;;;;;;9.20;8.30;;;25.80;90.00;;;;;;4945335;28;20493;-72
2023/09/11 09:19:14;;;;;;;10.93;7.90;;;25.80;90.00;;;;;;4961615;28;20442;-76
2023/09/11 09:22:08;;;;;;;9.57;7.83;;;25.90;90.00;;;;;;4961816;28;20216;-73
2023/09/11 09:24:36;;;;;;;9.50;8.20;;;25.90;90.00;;;;;;4976371;28;20430;-73
2023/09/11 09:27:04;;;;;;;9.63;8.63;;;25.90;89.80;;;;;;4962470;28;20501;-73
2023/09/11 09:29:37;;;;;;;9.83;7.50;;;25.90;89.70;;;;;;4969129;23;20568;-89
2023/09/11 09:32:09;;;;;;;13.13;8.50;;;25.90;89.60;;;;;;4936720;29;20431;-86
2023/09/11 09:34:36;;;;;;;11.00;8.20;;;26.00;89.60;;;;;;4936700;29;20746;-87
2023/09/11 09:37:05;;;;;;;9.87;8.57;;;26.00;89.60;;;;;;4939424;28;20477;-89
2023/09/11 09:39:33;;;;;;;9.90;8.53;;;26.00;89.90;;;;;;4971913;28;20429;-86
2023/09/11 09:42:07;;;;;;;12.47;8.97;;;26.00;89.40;;;;;;4954921;28;20484;-88
2023/09/11 09:44:36;;;;;;;9.13;7.93;;;26.00;89.30;;;;;;4954258;28;20450;-85
2023/09/11 09:47:13;;;;;;;10.10;9.10;;;26.10;89.40;;;;;;4974354;28;20458;-86
2023/09/11 09:49:50;;;;;;;10.43;8.47;;;26.10;89.40;;;;;;4971033;28;20518;-82
2023/09/11 09:52:20;;;;;;;9.40;8.13;;;26.10;89.40;;;;;;4964720;28;20406;-85
2023/09/11 09:54:50;;;;;;;10.97;8.77;;;26.10;89.20;;;;;;4966787;28;20453;-86
2023/09/11 09:57:18;;;;;;;9.27;7.90;;;26.20;89.20;;;;;;4961733;28;20481;-85
2023/09/11 09:59:52;;;;;;;9.90;9.00;;;26.10;89.10;;;;;;4982069;28;20406;-83
2023/09/11 10:02:32;;;;;;;9.37;8.43;;;26.20;89.20;;;;;;4971515;28;20450;-87
2023/09/11 10:05:07;;;;;;;9.87;8.43;;;26.20;89.20;;;;;;4990231;28;20486;-86
2023/09/11 10:07:39;;;;;;;10.27;8.80;;;26.20;89.10;;;;;;4980109;28;20418;-84
2023/09/11 10:10:20;;;;;;;9.20;8.30;;;26.30;89.10;;;;;;4975898;28;20441;-86
2023/09/11 10:12:46;;;;;;;11.53;9.30;;;26.30;89.10;;;;;;4971074;28;20434;-87
2023/09/11 10:15:15;;;;;;;11.73;8.60;;;26.30;88.90;;;;;;4963674;28;20472;-89
2023/09/11 10:17:41;;;;;;;11.17;10.03;;;26.40;89.00;;;;;;4969799;28;20198;-88
2023/09/11 10:20:08;;;;;;;10.43;8.53;;;26.40;88.90;;;;;;4959285;29;20426;-89
2023/09/11 10:22:34;;;;;;;11.80;8.50;;;26.40;88.80;;;;;;4960077;28;20451;-89
2023/09/11 10:25:02;;;;;;;12.27;8.20;;;26.40;89.00;;;;;;4971840;28;20840;-87
2023/09/11 10:27:28;;;;;;;12.73;8.87;;;26.50;89.00;;;;;;4939364;29;20524;-86
2023/09/11 10:30:02;;;;;;;12.00;8.80;;;26.50;88.90;;;;;;4947187;28;20850;-87
2023/09/11 10:32:55;;;;;;;9.10;8.20;;;26.50;88.80;;;;;;4973871;28;20398;-88
2023/09/11 10:35:23;;;;;;;10.47;8.43;;;26.60;88.80;;;;;;4957870;28;20474;-86
2023/09/11 10:37:56;;;;;;;10.40;8.97;;;26.60;88.90;;;;;;4972900;28;20549;-88
2023/09/11 10:40:31;;;;;;;8.70;7.97;;;26.60;88.80;;;;;;4973809;28;20508;-88
2023/09/11 10:42:58;;;;;;;13.70;9.07;;;26.70;88.90;;;;;;4956757;28;20488;-88
2023/09/11 10:45:28;;;;;;;10.73;9.57;;;26.70;88.90;;;;;;4939748;28;20427;-88
2023/09/11 10:47:57;;;;;;;10.13;8.40;;;26.70;88.90;;;;;;4971769;28;20426;-87
2023/09/11 10:50:24;;;;;;;8.97;7.93;;;26.70;88.90;;;;;;4955490;28;20969;-87
2023/09/11 10:52:55;;;;;;;12.93;9.40;;;26.70;88.80;;;;;;4971956;28;20496;-86
2023/09/11 10:55:23;;;;;;;11.70;8.77;;;26.80;88.80;;;;;;4971453;28;20422;-86
2023/09/11 10:57:56;;;;;;;10.73;9.37;;;26.80;88.80;;;;;;4972312;28;20485;-90
2023/09/11 11:00:22;;;;;;;12.70;9.23;;;26.80;88.80;;;;;;4956185;28;20437;-87
2023/09/11 11:02:52;;;;;;;15.20;9.13;;;26.90;88.90;;;;;;4973147;28;20422;-86
2023/09/11 11:05:18;;;;;;;10.50;8.63;;;26.90;88.80;;;;;;4972113;28;20483;-88
2023/09/11 11:07:49;;;;;;;14.13;9.10;;;27.00;89.00;;;;;;4968896;28;20528;-88
2023/09/11 11:10:16;;;;;;;11.87;8.83;;;27.00;89.90;;;;;;4973668;28;20418;-86
2023/09/11 11:12:44;;;;;;;10.00;8.80;;;27.00;89.10;;;;;;4956193;28;20544;-88
2023/09/11 11:15:23;;;;;;;10.00;9.00;;;27.00;88.90;;;;;;4940755;28;20442;-88
2023/09/11 11:18:25;;;;;;;10.90;9.90;;;27.10;89.20;;;;;;4956430;28;20450;-88
2023/09/11 11:21:00;;;;;;;11.87;9.27;;;27.10;89.00;;;;;;4973885;28;20441;-86
2023/09/11 11:23:29;;;;;;;10.67;9.33;;;27.10;88.90;;;;;;4973097;28;20406;-88
2023/09/11 11:26:03;;;;;;;10.97;9.20;;;27.10;88.80;;;;;;4945934;28;20462;-88
2023/09/11 11:28:38;;;;;;;9.93;8.93;;;27.20;88.90;;;;;;4972776;28;20513;-89
2023/09/11 11:31:06;;;;;;;11.17;10.07;;;27.20;88.80;;;;;;4955468;28;20886;-88
2023/09/11 11:33:35;;;;;;;14.43;9.20;;;27.30;89.10;;;;;;4971650;28;20442;-88
2023/09/11 11:36:02;;;;;;;12.50;9.70;;;27.30;89.20;;;;;;4973314;28;20433;-92
2023/09/11 11:38:29;;;;;;;10.60;9.60;;;27.30;89.30;;;;;;4971821;28;20930;-86
2023/09/11 11:40:56;;;;;;;10.20;9.30;;;27.30;88.90;;;;;;4972668;28;20433;-86
2023/09/11 11:43:23;;;;;;;10.37;9.23;;;27.40;88.80;;;;;;4955502;28;20564;-90
2023/09/11 11:45:54;;;;;;;14.53;9.87;;;27.40;88.60;;;;;;4971774;28;20875;-91
2023/09/11 11:48:20;;;;;;;14.70;10.50;;;27.40;88.50;;;;;;4956145;28;20493;-90
2023/09/11 11:50:49;;;;;;;11.67;10.57;;;27.40;88.30;;;;;;4956270;28;21065;-89
2023/09/11 11:53:21;;;;;;;10.90;9.80;;;27.50;88.30;;;;;;4971560;28;20493;-91
2023/09/11 11:55:48;;;;;;;13.90;10.10;;;27.50;88.30;;;;;;4956208;28;20453;-89
2023/09/11 11:58:17;;;;;;;12.60;11.07;;;27.50;88.30;;;;;;4973171;28;20748;-90
2023/09/11 12:00:59;;;;;;;10.57;9.53;;;27.50;88.40;;;;;;4967088;28;20479;-92
2023/09/11 12:03:27;;;;;;;11.17;10.17;;;27.60;88.50;;;;;;4955710;28;20544;-90
2023/09/11 12:05:56;;;;;;;12.23;10.27;;;27.60;88.50;;;;;;4972818;28;20537;-87
2023/09/11 12:08:25;;;;;;;10.33;9.23;;;27.60;88.20;;;;;;4940918;28;21025;-89
2023/09/11 12:10:54;;;;;;;14.30;9.23;;;27.60;88.10;;;;;;4968339;28;20769;-89
2023/09/11 12:13:23;;;;;;;11.13;9.83;;;27.70;88.20;;;;;;4921600;29;20502;-91
2023/09/11 12:15:58;;;;;;;10.83;9.80;;;27.70;88.10;;;;;;4952015;28;20441;-88
2023/09/11 12:18:25;;;;;;;10.97;9.97;;;27.70;88.00;;;;;;4973848;28;20512;-90
2023/09/11 12:21:01;;;;;;;11.83;10.63;;;27.80;88.20;;;;;;4972482;28;20525;-90
2023/09/11 12:23:27;;;;;;;11.80;10.10;;;27.80;88.10;;;;;;4957280;28;20432;-91
2023/09/11 12:25:59;;;;;;;11.83;10.57;;;27.80;88.20;;;;;;4937613;29;20462;-86
2023/09/11 12:28:26;;;;;;;11.57;10.47;;;27.90;87.90;;;;;;4951575;29;20415;-88
2023/09/11 12:33:51;;;;;;;11.20;9.80;;;27.90;87.70;;;;;;4963463;28;20433;-87
2023/09/11 12:36:46;;;;;;;10.77;9.77;;;27.90;87.80;;;;;;4964294;28;20458;-88
2023/09/11 12:39:14;;;;;;;10.47;9.57;;;28.20;88.00;;;;;;4956134;28;21233;-89
2023/09/11 12:46:28;;;;;;;9.83;8.97;;;28.20;87.70;;;;;;4970312;28;20489;-88
2023/09/11 12:48:54;;;;;;;11.70;10.50;;;28.10;88.50;;;;;;4950523;28;20442;-90
2023/09/11 12:51:21;;;;;;;10.70;9.63;;;28.10;88.90;;;;;;4966620;28;20414;-90
2023/09/11 12:53:47;;;;;;;10.77;9.83;;;28.10;87.50;;;;;;4982846;28;20513;-91
2023/09/11 12:56:20;;;;;;;11.10;9.70;;;28.10;87.40;;;;;;4987923;28;20470;-90
2023/09/11 12:58:47;;;;;;;10.93;10.03;;;28.20;87.30;;;;;;4965118;28;20476;-91